Time;durP1;ratioP1;P1;durP2;ratioP2;P2;SDS_P1;SDS_P2;PMS_P1;PMS_P2;Temp;Humidity;BMP_temperature;BMP_pressure;BME280_temperature;BME280_humidity;BME280_pressure;Samples;Min_cycle;Max_cycle;Signal;HPM_P1;HPM_P2
2024/03/10 00:00:14;;;;;;;5.37;3.60;;;;;;;7.54;93.36;96137.41;4973678;28;20214;-75
2024/03/10 00:02:43;;;;;;;5.47;4.00;;;;;;;7.52;94.30;96134.06;4974287;28;20235;-77
2024/03/10 00:05:12;;;;;;;6.13;3.77;;;;;;;7.56;94.19;96135.47;4974209;28;20652;-77
2024/03/10 00:07:38;;;;;;;6.00;4.20;;;;;;;7.59;93.83;96135.22;4974334;28;20240;-77
2024/03/10 00:10:06;;;;;;;6.17;3.90;;;;;;;7.57;94.15;96137.13;4973581;28;20293;-76
2024/03/10 00:12:32;;;;;;;4.43;3.50;;;;;;;7.61;93.83;96128.00;4973872;28;20617;-76
2024/03/10 00:14:59;;;;;;;5.80;3.60;;;;;;;7.67;93.34;96125.69;4973566;28;20223;-76
2024/03/10 00:17:27;;;;;;;4.73;3.83;;;;;;;7.75;93.12;96130.22;4973755;28;20242;-76
2024/03/10 00:19:53;;;;;;;4.50;3.70;;;;;;;7.90;91.56;96123.63;4973729;28;20207;-76
2024/03/10 00:22:20;;;;;;;6.50;3.77;;;;;;;7.94;91.67;96125.81;4973340;28;20230;-76
2024/03/10 00:24:46;;;;;;;5.90;3.57;;;;;;;8.03;90.84;96113.66;4973643;28;20212;-75
2024/03/10 00:27:13;;;;;;;4.10;3.13;;;;;;;8.05;90.86;96107.28;4973467;28;20211;-75
2024/03/10 00:29:39;;;;;;;4.73;3.70;;;;;;;8.11;90.08;96121.66;4973430;28;20221;-76
2024/03/10 00:32:07;;;;;;;5.53;3.93;;;;;;;8.11;89.38;96097.97;4973187;28;20601;-75
2024/03/10 00:34:36;;;;;;;5.77;4.10;;;;;;;8.13;88.73;96104.75;4973466;28;20215;-75
2024/03/10 00:37:02;;;;;;;5.37;3.80;;;;;;;8.15;88.50;96107.25;4973267;28;20216;-75
2024/03/10 00:39:29;;;;;;;4.67;3.43;;;;;;;8.16;89.32;96103.66;4973732;28;20251;-76
2024/03/10 00:41:55;;;;;;;4.57;3.80;;;;;;;8.16;88.37;96096.59;4972788;28;20306;-77
2024/03/10 00:44:22;;;;;;;6.40;3.60;;;;;;;8.15;88.92;96086.22;4973228;28;20730;-76
2024/03/10 00:46:48;;;;;;;4.70;3.47;;;;;;;8.16;88.89;96093.13;4973024;28;20218;-76
2024/03/10 00:49:15;;;;;;;5.10;3.43;;;;;;;8.16;88.77;96095.75;4973125;28;20202;-76
2024/03/10 00:51:43;;;;;;;4.60;3.63;;;;;;;8.17;88.89;96090.38;4972578;28;20240;-77
2024/03/10 00:54:10;;;;;;;5.67;3.53;;;;;;;8.15;89.52;96091.47;4972747;28;20574;-77
2024/03/10 00:56:36;;;;;;;5.63;3.53;;;;;;;8.13;88.67;96088.13;4972432;28;20213;-76
2024/03/10 00:59:02;;;;;;;5.97;3.70;;;;;;;8.13;88.84;96082.88;4972675;28;20728;-76
2024/03/10 01:01:29;;;;;;;4.87;3.50;;;;;;;8.17;87.95;96079.00;4972607;28;20243;-77
2024/03/10 01:03:56;;;;;;;5.77;3.70;;;;;;;8.17;88.96;96100.06;4972784;28;20235;-76
2024/03/10 01:06:23;;;;;;;4.87;3.50;;;;;;;8.16;88.95;96090.50;4972827;28;20708;-77
2024/03/10 01:08:51;;;;;;;5.07;3.47;;;;;;;8.16;88.86;96093.13;4972752;28;20208;-76
2024/03/10 01:11:17;;;;;;;5.07;3.77;;;;;;;8.15;89.59;96104.63;4972758;28;20233;-76
2024/03/10 01:13:46;;;;;;;5.90;3.73;;;;;;;8.09;90.36;96102.56;4972812;28;20252;-75
2024/03/10 01:16:12;;;;;;;5.13;3.40;;;;;;;8.05;90.38;96106.44;4972711;28;20313;-75
2024/03/10 01:18:39;;;;;;;5.80;3.90;;;;;;;8.02;90.00;96096.19;4972449;28;20240;-75
2024/03/10 01:21:05;;;;;;;4.60;3.27;;;;;;;8.03;89.85;96088.16;4972150;28;20232;-76
2024/03/10 01:23:32;;;;;;;5.23;3.60;;;;;;;8.05;89.44;96085.38;4972549;28;20219;-76
2024/03/10 01:26:01;;;;;;;6.87;4.10;;;;;;;8.04;89.91;96081.09;4972470;28;20221;-76
2024/03/10 01:28:27;;;;;;;5.13;3.07;;;;;;;8.08;89.15;96072.78;4972599;28;20208;-75
2024/03/10 01:30:54;;;;;;;4.97;3.37;;;;;;;8.11;87.85;96061.16;4972053;28;20237;-75
2024/03/10 01:33:20;;;;;;;5.17;3.67;;;;;;;8.16;87.31;96064.19;4972383;28;20681;-75
2024/03/10 01:35:47;;;;;;;4.23;3.23;;;;;;;8.19;87.13;96066.53;4972533;28;20220;-76
2024/03/10 01:38:13;;;;;;;5.27;3.20;;;;;;;8.20;86.33;96055.09;4972287;28;20248;-76
2024/03/10 01:40:40;;;;;;;3.60;2.93;;;;;;;8.24;85.86;96051.19;4972385;28;20272;-76
2024/03/10 01:43:08;;;;;;;5.10;3.43;;;;;;;8.24;85.55;96041.50;4972372;28;20212;-76
2024/03/10 01:45:34;;;;;;;5.27;3.47;;;;;;;8.25;85.55;96050.22;4972612;28;20224;-76
2024/03/10 01:48:02;;;;;;;4.70;3.40;;;;;;;8.23;85.91;96037.22;4972617;28;20580;-75
2024/03/10 01:50:28;;;;;;;4.73;2.87;;;;;;;8.20;86.15;96039.31;4972111;28;20248;-76
2024/03/10 01:52:55;;;;;;;5.43;3.57;;;;;;;8.18;86.07;96038.56;4972575;28;20591;-76
2024/03/10 01:55:22;;;;;;;5.47;3.53;;;;;;;8.14;86.05;96037.22;4972371;28;20702;-76
2024/03/10 01:57:50;;;;;;;4.73;3.37;;;;;;;8.10;85.96;96025.31;4972228;28;20258;-76
2024/03/10 02:00:21;;;;;;;5.03;3.30;;;;;;;8.07;86.04;96022.94;4971906;28;20216;-76
2024/03/10 02:02:48;;;;;;;4.47;3.63;;;;;;;8.05;85.44;96017.00;4972335;28;20223;-76
2024/03/10 02:05:15;;;;;;;4.53;3.27;;;;;;;8.00;86.13;96024.47;4972159;28;20312;-76
2024/03/10 02:07:43;;;;;;;4.80;3.20;;;;;;;8.00;85.99;96013.94;4975770;28;20218;-76
2024/03/10 02:10:10;;;;;;;5.93;3.00;;;;;;;7.94;85.75;96009.25;4975827;28;20208;-76
2024/03/10 02:12:38;;;;;;;4.43;3.20;;;;;;;7.91;85.05;96009.56;4976031;28;20209;-77
2024/03/10 02:15:06;;;;;;;4.87;3.27;;;;;;;7.82;85.24;96010.38;4975873;28;20272;-76
2024/03/10 02:17:36;;;;;;;3.97;3.03;;;;;;;7.68;87.15;96018.72;4975797;28;20216;-75
2024/03/10 02:20:03;;;;;;;4.60;3.30;;;;;;;7.53;88.16;96033.25;4975892;28;20588;-75
2024/03/10 02:22:31;;;;;;;4.00;2.97;;;;;;;7.44;88.43;96031.44;4975783;28;20317;-75
2024/03/10 02:24:59;;;;;;;4.33;3.20;;;;;;;7.39;87.93;96017.88;4975812;28;20207;-76
2024/03/10 02:27:28;;;;;;;5.30;3.70;;;;;;;7.27;89.26;96024.22;4975764;28;20214;-75
2024/03/10 02:30:18;;;;;;;4.90;3.47;;;;;;;7.24;90.04;96029.78;4975655;28;20218;-76
2024/03/10 02:49:13;;;;;;;5.40;3.30;;;;;;;7.32;89.43;95989.69;4975276;28;20266;-76
2024/03/10 02:51:42;;;;;;;4.23;3.10;;;;;;;7.30;90.31;95987.19;4975098;28;20342;-76
2024/03/10 02:54:08;;;;;;;4.20;3.10;;;;;;;7.39;89.35;95978.47;4975119;28;20217;-76
2024/03/10 02:56:35;;;;;;;3.73;3.17;;;;;;;7.31;89.95;95973.09;4975099;28;20595;-76
2024/03/10 02:59:02;;;;;;;5.20;3.17;;;;;;;7.28;90.53;95987.31;4975031;28;20238;-76
2024/03/10 03:01:29;;;;;;;4.20;3.03;;;;;;;7.21;90.75;95984.56;4975123;28;20228;-76
2024/03/10 03:03:56;;;;;;;4.50;3.00;;;;;;;7.15;90.99;95998.25;4975146;28;20270;-76
2024/03/10 03:06:22;;;;;;;3.23;2.77;;;;;;;7.12;90.80;96001.13;4975249;28;20674;-76
2024/03/10 03:08:49;;;;;;;4.03;2.67;;;;;;;7.11;89.81;95997.69;4975195;28;20214;-77
2024/03/10 03:11:15;;;;;;;5.87;3.00;;;;;;;7.05;90.08;95981.63;4974887;28;20240;-77
2024/03/10 03:13:42;;;;;;;3.70;2.77;;;;;;;6.99;89.61;95980.41;4974827;28;20206;-76
2024/03/10 03:16:10;;;;;;;6.30;2.80;;;;;;;6.94;90.51;95974.72;4974737;28;20207;-75
2024/03/10 03:18:36;;;;;;;4.67;2.70;;;;;;;6.84;91.01;95973.88;4973938;28;20237;-75
2024/03/10 03:21:03;;;;;;;4.17;2.80;;;;;;;6.74;91.91;95978.28;4974643;28;20271;-76
2024/03/10 03:23:30;;;;;;;4.90;3.37;;;;;;;6.63;92.97;95967.91;4974808;28;20270;-76
2024/03/10 03:25:59;;;;;;;3.33;2.57;;;;;;;6.54;93.81;95971.31;4974722;28;20214;-76
2024/03/10 03:28:27;;;;;;;4.07;2.63;;;;;;;6.51;93.83;95961.09;4974664;28;20693;-76
2024/03/10 03:30:55;;;;;;;4.80;3.23;;;;;;;6.42;93.99;95956.63;4974579;28;20306;-76
2024/03/10 03:33:23;;;;;;;3.80;2.60;;;;;;;6.37;94.40;95945.72;4974630;28;20215;-76
2024/03/10 03:35:49;;;;;;;4.03;3.10;;;;;;;6.38;93.89;95954.41;4974778;28;20209;-76
2024/03/10 03:38:17;;;;;;;3.97;3.00;;;;;;;6.40;92.86;95945.44;4974505;28;20733;-76
2024/03/10 03:40:43;;;;;;;5.40;2.77;;;;;;;6.34;93.82;95956.47;4974463;28;20238;-76
2024/03/10 03:43:10;;;;;;;4.30;2.77;;;;;;;6.33;94.23;95960.06;4974846;28;20216;-76
2024/03/10 03:45:37;;;;;;;4.83;2.97;;;;;;;6.42;93.50;95955.81;4974561;28;20222;-76
2024/03/10 03:48:04;;;;;;;4.23;2.77;;;;;;;6.45;92.93;95931.94;4974533;28;20570;-76
2024/03/10 03:50:32;;;;;;;3.57;2.87;;;;;;;6.49;92.14;95925.47;4974077;28;20253;-76
2024/03/10 03:53:00;;;;;;;3.60;2.57;;;;;;;6.37;92.87;95927.38;4974320;28;20218;-76
2024/03/10 03:55:27;;;;;;;3.73;2.73;;;;;;;6.26;94.60;95930.09;4974059;28;20627;-76
2024/03/10 03:57:53;;;;;;;3.27;2.50;;;;;;;6.23;95.03;95927.72;4974407;28;20210;-76
2024/03/10 04:00:20;;;;;;;5.57;2.97;;;;;;;6.27;94.43;95926.50;4973819;28;20730;-76
2024/03/10 04:02:48;;;;;;;4.00;2.90;;;;;;;6.31;93.44;95920.03;4974005;28;20740;-76
2024/03/10 04:05:14;;;;;;;4.00;2.70;;;;;;;6.35;92.63;95920.59;4973986;28;20225;-76
2024/03/10 04:07:42;;;;;;;3.00;2.63;;;;;;;6.35;93.58;95913.53;4974186;28;20215;-77
2024/03/10 04:10:10;;;;;;;4.00;2.80;;;;;;;6.39;93.59;95914.94;4973796;28;20237;-76
2024/03/10 04:12:36;;;;;;;2.87;2.30;;;;;;;6.37;94.00;95911.63;4973849;28;20684;-76
2024/03/10 04:15:04;;;;;;;4.17;3.03;;;;;;;6.37;94.49;95910.78;4974111;28;20309;-76
2024/03/10 04:17:31;;;;;;;3.90;3.07;;;;;;;6.37;94.41;95903.75;4973929;28;20650;-76
2024/03/10 04:19:58;;;;;;;3.27;2.50;;;;;;;6.29;94.75;95902.78;4973863;28;20306;-76
2024/03/10 04:22:24;;;;;;;5.17;2.87;;;;;;;6.19;95.44;95892.25;4973594;28;20242;-76
2024/03/10 04:24:52;;;;;;;5.00;2.90;;;;;;;6.10;96.55;95879.94;4973491;28;20210;-76
2024/03/10 04:27:19;;;;;;;4.20;2.87;;;;;;;5.98;96.35;95883.63;4973720;28;20219;-76
2024/03/10 04:29:46;;;;;;;4.73;3.37;;;;;;;5.98;96.40;95878.38;4973453;28;20217;-76
2024/03/10 04:32:12;;;;;;;3.23;2.93;;;;;;;5.95;95.82;95873.41;4973410;28;20237;-76
2024/03/10 04:34:39;;;;;;;4.50;3.07;;;;;;;5.92;96.28;95871.03;4973681;28;20217;-76
2024/03/10 04:37:08;;;;;;;4.33;3.13;;;;;;;5.84;97.47;95868.25;4973459;28;20234;-76
2024/03/10 04:39:34;;;;;;;4.83;3.27;;;;;;;5.81;97.99;95875.56;4973323;28;20245;-76
2024/03/10 04:42:02;;;;;;;3.13;2.37;;;;;;;5.75;98.71;95882.09;4973255;28;20236;-76
2024/03/10 04:44:29;;;;;;;4.10;3.13;;;;;;;5.74;99.21;95880.44;4973555;28;20217;-76
2024/03/10 04:46:57;;;;;;;2.50;2.30;;;;;;;5.77;98.27;95880.19;4973330;28;20268;-76
2024/03/10 04:49:24;;;;;;;3.33;2.30;;;;;;;5.92;96.97;95885.97;4973357;28;20305;-78
2024/03/10 04:51:50;;;;;;;3.70;2.77;;;;;;;5.92;96.56;95878.91;4972847;28;20609;-76
2024/03/10 04:54:16;;;;;;;4.10;2.40;;;;;;;5.93;95.84;95874.50;4973477;28;20233;-75
2024/03/10 04:56:46;;;;;;;3.47;2.67;;;;;;;5.96;96.72;95875.06;4973252;28;20211;-75
2024/03/10 04:59:13;;;;;;;3.70;2.20;;;;;;;5.93;97.23;95869.25;4973265;28;20257;-77
2024/03/10 05:01:40;;;;;;;4.73;2.50;;;;;;;5.82;97.27;95871.97;4972970;28;20647;-75
2024/03/10 05:04:06;;;;;;;3.50;2.43;;;;;;;5.90;96.73;95870.34;4973044;28;20590;-75
2024/03/10 05:06:34;;;;;;;3.77;2.33;;;;;;;5.93;96.78;95869.25;4973139;28;20211;-76
2024/03/10 05:09:01;;;;;;;3.47;2.50;;;;;;;5.87;96.61;95885.50;4973245;28;20209;-75
2024/03/10 05:11:29;;;;;;;3.33;2.50;;;;;;;5.85;95.97;95888.25;4972864;28;20611;-75
2024/03/10 05:13:57;;;;;;;4.30;2.50;;;;;;;5.94;96.55;95892.72;4973113;28;20206;-75
2024/03/10 05:16:26;;;;;;;3.43;2.20;;;;;;;5.88;96.75;95888.00;4972900;28;20222;-76
2024/03/10 05:18:53;;;;;;;4.33;2.60;;;;;;;6.04;94.92;95880.47;4972745;28;20238;-76
2024/03/10 05:21:20;;;;;;;3.37;2.13;;;;;;;6.14;92.93;95867.38;4972735;28;20239;-76
2024/03/10 05:23:46;;;;;;;3.10;2.13;;;;;;;6.23;92.80;95856.91;4972761;28;20669;-75
2024/03/10 05:26:13;;;;;;;3.83;2.13;;;;;;;6.33;91.65;95846.44;4972954;28;20214;-76
2024/03/10 05:28:39;;;;;;;2.43;2.10;;;;;;;6.38;89.92;95846.88;4973007;28;20207;-76
2024/03/10 05:31:27;;;;;;;2.63;2.20;;;;;;;6.33;89.97;95841.19;4972501;28;20233;-76
2024/03/10 05:33:55;;;;;;;4.67;2.37;;;;;;;6.25;91.29;95852.38;4972706;28;20230;-77
2024/03/10 05:36:22;;;;;;;2.20;2.00;;;;;;;6.22;91.12;95855.25;4972847;28;20242;-77
2024/03/10 05:38:48;;;;;;;3.07;2.20;;;;;;;6.22;90.77;95857.88;4972482;28;20231;-77
2024/03/10 05:41:15;;;;;;;3.13;2.10;;;;;;;6.34;89.25;95856.81;4971767;28;20257;-76
2024/03/10 05:43:42;;;;;;;2.40;1.73;;;;;;;6.27;89.56;95847.81;4972688;28;20218;-77
2024/03/10 05:46:09;;;;;;;4.67;2.40;;;;;;;6.25;89.17;95865.50;4972663;28;20310;-76
2024/03/10 05:48:37;;;;;;;2.80;2.07;;;;;;;6.14;90.29;95865.59;4972610;28;20211;-77
2024/03/10 05:51:04;;;;;;;2.10;1.77;;;;;;;6.18;88.85;95864.34;4972456;28;20604;-76
2024/03/10 05:53:30;;;;;;;2.97;2.20;;;;;;;6.19;87.90;95863.41;4972473;28;20602;-76
2024/03/10 05:55:57;;;;;;;2.40;1.87;;;;;;;6.19;88.18;95867.81;4972466;28;20265;-77
2024/03/10 05:58:24;;;;;;;3.37;2.00;;;;;;;6.21;87.43;95879.84;4972927;28;20576;-77
2024/03/10 06:00:50;;;;;;;2.50;1.77;;;;;;;6.07;88.89;95892.47;4971866;28;20277;-76
2024/03/10 06:03:16;;;;;;;2.73;1.97;;;;;;;5.89;90.51;95905.41;4972722;28;20313;-76
2024/03/10 06:05:44;;;;;;;2.83;2.10;;;;;;;5.81;92.30;95907.81;4972328;28;20305;-77
2024/03/10 06:08:11;;;;;;;3.23;2.30;;;;;;;5.86;92.35;95908.25;4972431;28;20219;-76
2024/03/10 06:10:38;;;;;;;3.80;2.20;;;;;;;5.91;90.93;95906.09;4972098;28;20280;-77
2024/03/10 06:13:05;;;;;;;2.60;2.10;;;;;;;5.77;91.95;95901.16;4972288;28;20218;-76
2024/03/10 06:15:32;;;;;;;2.93;2.03;;;;;;;5.73;93.25;95904.19;4972267;28;20215;-76
2024/03/10 06:18:04;;;;;;;2.73;2.23;;;;;;;5.69;93.67;95902.78;4972463;28;20257;-77
2024/03/10 06:26:00;;;;;;;3.03;2.23;;;;;;;5.60;95.56;95907.00;4972327;28;20213;-76
2024/03/10 06:28:27;;;;;;;3.53;2.37;;;;;;;5.60;96.19;95899.16;4972318;28;20801;-76
2024/03/10 06:30:58;;;;;;;3.77;2.70;;;;;;;5.62;95.99;95899.84;4972060;28;20229;-76
2024/03/10 06:33:24;;;;;;;3.60;2.30;;;;;;;5.83;94.12;95884.09;4972313;28;20222;-76
2024/03/10 06:35:51;;;;;;;3.07;2.40;;;;;;;5.99;92.04;95868.72;4972128;28;20206;-76
2024/03/10 06:38:19;;;;;;;3.90;2.63;;;;;;;6.06;90.98;95862.00;4971939;28;20702;-76
2024/03/10 06:40:45;;;;;;;3.30;2.17;;;;;;;6.14;90.43;95854.28;4971807;28;20676;-76
2024/03/10 06:43:12;;;;;;;2.63;2.07;;;;;;;6.15;90.00;95854.16;4972306;28;20633;-77
2024/03/10 06:45:38;;;;;;;2.77;2.20;;;;;;;6.08;90.37;95862.66;4972237;28;20225;-76
2024/03/10 06:48:06;;;;;;;3.37;2.07;;;;;;;6.06;91.68;95873.31;4972155;28;20219;-76
2024/03/10 06:50:32;;;;;;;3.63;2.50;;;;;;;6.08;91.40;95871.38;4971476;28;20230;-76
2024/03/10 06:52:59;;;;;;;2.83;2.03;;;;;;;6.10;91.78;95868.63;4972766;28;20677;-77
2024/03/10 06:55:27;;;;;;;3.37;2.40;;;;;;;6.15;91.98;95875.13;4975749;28;20234;-77
2024/03/10 06:57:53;;;;;;;3.17;2.23;;;;;;;6.12;93.19;95885.06;4975589;28;20306;-77
2024/03/10 07:00:24;;;;;;;3.03;2.23;;;;;;;6.09;94.58;95901.03;4975081;28;20246;-77
2024/03/10 07:02:51;;;;;;;3.10;2.40;;;;;;;6.09;96.57;95899.25;4975529;28;20417;-76
2024/03/10 07:05:18;;;;;;;2.87;2.23;;;;;;;6.31;91.74;95864.13;4975148;28;20309;-77
2024/03/10 07:07:45;;;;;;;3.10;2.30;;;;;;;6.41;88.19;95860.53;4975174;28;20715;-76
2024/03/10 07:10:12;;;;;;;3.33;2.20;;;;;;;6.38;88.84;95852.97;4975107;28;20214;-77
2024/03/10 07:12:40;;;;;;;2.93;2.20;;;;;;;6.46;89.64;95844.38;4975133;28;20514;-77
2024/03/10 07:15:09;;;;;;;2.30;2.00;;;;;;;6.49;89.82;95858.09;4975000;28;20222;-76
2024/03/10 07:17:38;;;;;;;3.17;2.20;;;;;;;6.42;90.84;95851.69;4975090;28;20208;-77
2024/03/10 07:20:05;;;;;;;3.53;2.23;;;;;;;6.50;91.23;95849.25;4974924;28;20228;-77
2024/03/10 07:22:32;;;;;;;3.93;2.00;;;;;;;6.55;89.19;95841.78;4975143;28;20234;-77
2024/03/10 07:24:58;;;;;;;3.03;2.20;;;;;;;6.55;88.58;95839.16;4974796;28;20216;-77
2024/03/10 07:27:25;;;;;;;2.80;2.47;;;;;;;6.56;90.25;95834.75;4975064;28;20223;-76
2024/03/10 07:29:53;;;;;;;2.50;2.27;;;;;;;6.63;90.71;95839.31;4974912;28;20274;-76
2024/03/10 07:32:20;;;;;;;2.17;1.90;;;;;;;6.58;92.32;95851.16;4974553;28;20259;-76
2024/03/10 07:34:48;;;;;;;3.43;2.10;;;;;;;6.57;93.00;95850.34;4975115;28;20211;-76
2024/03/10 07:37:14;;;;;;;4.00;2.30;;;;;;;6.56;93.43;95843.44;4974870;28;20350;-76
2024/03/10 07:39:41;;;;;;;4.47;2.70;;;;;;;6.60;93.69;95839.56;4974470;28;20736;-77
2024/03/10 07:42:07;;;;;;;3.10;2.10;;;;;;;6.61;93.32;95830.75;4974258;28;20321;-76
2024/03/10 07:44:34;;;;;;;2.47;2.20;;;;;;;6.71;93.27;95821.06;4974527;28;20652;-76
2024/03/10 07:47:01;;;;;;;3.07;2.13;;;;;;;6.82;91.98;95817.47;4974296;28;20211;-76
2024/03/10 07:49:28;;;;;;;2.17;1.90;;;;;;;6.87;90.98;95804.75;4974685;28;20217;-76
2024/03/10 07:51:55;;;;;;;2.60;2.10;;;;;;;6.98;90.23;95808.06;4974314;28;20698;-76
2024/03/10 07:54:21;;;;;;;2.90;2.20;;;;;;;7.02;89.86;95814.69;4974255;28;20693;-77
2024/03/10 07:56:48;;;;;;;3.17;2.00;;;;;;;7.09;89.75;95826.28;4974873;28;20213;-78
2024/03/10 07:59:15;;;;;;;2.40;2.03;;;;;;;7.17;90.26;95846.59;4974763;28;20227;-75
2024/03/10 08:01:41;;;;;;;3.77;2.20;;;;;;;7.32;91.85;95867.88;4974037;28;20233;-75
2024/03/10 08:04:10;;;;;;;2.27;2.07;;;;;;;7.42;92.30;95867.84;4973924;28;20226;-76
2024/03/10 08:06:37;;;;;;;2.83;2.20;;;;;;;7.63;91.65;95873.72;4974487;28;20231;-76
2024/03/10 08:09:05;;;;;;;3.37;2.00;;;;;;;7.77;90.07;95860.16;4974472;28;20219;-77
2024/03/10 08:11:31;;;;;;;4.03;2.00;;;;;;;7.91;89.04;95851.78;4972571;28;20313;-77
2024/03/10 08:13:59;;;;;;;3.93;2.27;;;;;;;8.02;88.99;95854.22;4974081;28;20221;-77
2024/03/10 08:16:26;;;;;;;2.93;2.03;;;;;;;8.09;87.98;95850.84;4974148;28;20219;-77
2024/03/10 08:18:52;;;;;;;3.30;2.17;;;;;;;8.02;87.28;95851.59;4973991;28;20603;-76
2024/03/10 08:21:21;;;;;;;3.07;2.07;;;;;;;8.00;88.50;95850.88;4973606;28;20239;-77
2024/03/10 08:23:49;;;;;;;2.40;1.87;;;;;;;8.04;88.48;95841.75;4973810;28;20266;-77
2024/03/10 08:26:16;;;;;;;2.37;2.03;;;;;;;8.16;85.55;95840.56;4973834;28;20219;-77
2024/03/10 08:28:42;;;;;;;3.33;2.47;;;;;;;8.27;83.12;95811.47;4973965;28;20595;-77
2024/03/10 08:31:09;;;;;;;2.50;2.10;;;;;;;8.38;84.21;95814.69;4973846;28;20231;-77
2024/03/10 08:33:35;;;;;;;2.97;2.10;;;;;;;8.45;83.03;95804.44;4973926;28;20209;-77
2024/03/10 08:36:02;;;;;;;3.07;2.00;;;;;;;8.54;82.05;95792.97;4973774;28;20216;-76
2024/03/10 08:38:30;;;;;;;3.43;2.33;;;;;;;8.58;80.75;95768.03;4973694;28;20221;-75
2024/03/10 08:40:57;;;;;;;2.90;2.13;;;;;;;8.69;78.00;95733.56;4973338;28;20753;-75
2024/03/10 08:43:24;;;;;;;2.37;1.97;;;;;;;8.76;75.42;95731.97;4973732;28;20374;-75
2024/03/10 08:45:50;;;;;;;3.10;1.87;;;;;;;8.78;76.48;95756.34;4973697;28;20852;-76
2024/03/10 08:48:17;;;;;;;2.30;2.10;;;;;;;8.87;75.36;95743.06;4973618;28;20562;-78
2024/03/10 08:50:44;;;;;;;2.90;2.03;;;;;;;8.98;73.45;95736.72;4973410;28;20783;-77
2024/03/10 08:53:10;;;;;;;2.87;1.93;;;;;;;9.08;73.75;95734.84;4973736;28;20209;-78
2024/03/10 08:55:38;;;;;;;2.03;1.80;;;;;;;9.20;73.59;95733.59;4973293;28;20219;-75
2024/03/10 08:58:05;;;;;;;2.77;1.90;;;;;;;9.22;73.84;95739.53;4973082;28;20216;-76
2024/03/10 09:00:31;;;;;;;2.73;2.00;;;;;;;9.28;74.08;95749.44;4972408;28;20235;-76
2024/03/10 09:02:58;;;;;;;2.37;1.80;;;;;;;9.37;74.16;95751.97;4973088;28;20228;-76
2024/03/10 09:05:24;;;;;;;2.93;2.07;;;;;;;9.48;73.60;95737.72;4973188;28;20226;-80
2024/03/10 09:07:51;;;;;;;2.47;1.93;;;;;;;9.60;72.65;95710.09;4971558;28;20222;-78
2024/03/10 09:10:23;;;;;;;2.33;1.83;;;;;;;9.69;70.07;95682.75;4971303;28;20224;-77
2024/03/10 09:12:51;;;;;;;2.50;1.40;;;;;;;9.67;69.55;95684.72;4972143;28;20218;-77
2024/03/10 09:15:18;;;;;;;2.37;1.70;;;;;;;9.69;69.56;95693.31;4971640;28;20214;-76
2024/03/10 09:17:45;;;;;;;3.50;1.87;;;;;;;9.66;69.16;95694.44;4971579;28;20382;-77
2024/03/10 09:20:13;;;;;;;2.00;1.70;;;;;;;9.70;69.23;95710.78;4971674;28;20257;-77
2024/03/10 09:22:40;;;;;;;2.63;1.70;;;;;;;9.87;68.83;95715.97;4971913;28;20265;-76
2024/03/10 09:25:12;;;;;;;3.10;1.93;;;;;;;10.11;67.00;95705.50;4971938;28;20214;-76
2024/03/10 09:27:40;;;;;;;4.17;2.00;;;;;;;10.13;67.26;95723.78;4972323;28;20210;-76
2024/03/10 09:30:09;;;;;;;2.40;1.70;;;;;;;10.25;67.96;95751.53;4971749;28;20204;-75
2024/03/10 09:32:36;;;;;;;2.57;1.93;;;;;;;10.30;67.59;95752.72;4972151;28;20566;-76
2024/03/10 09:35:03;;;;;;;2.27;1.90;;;;;;;10.35;66.64;95744.31;4972289;28;20208;-76
2024/03/10 09:37:30;;;;;;;2.37;1.80;;;;;;;10.40;66.33;95742.00;4972180;28;20225;-76
2024/03/10 09:39:57;;;;;;;3.50;1.70;;;;;;;10.44;65.63;95759.16;4972047;28;20216;-76
2024/03/10 09:42:25;;;;;;;2.60;1.80;;;;;;;10.56;65.36;95752.56;4972193;28;20321;-78
2024/03/10 09:44:52;;;;;;;2.40;1.93;;;;;;;10.68;65.73;95743.34;4972652;28;20208;-76
2024/03/10 09:47:21;;;;;;;1.98;1.77;;;;;;;10.75;65.09;95736.41;4966987;28;20926;-76
2024/03/10 09:49:48;;;;;;;2.30;1.80;;;;;;;10.81;66.59;95746.31;4971629;28;20213;-77
2024/03/10 09:52:15;;;;;;;2.23;1.67;;;;;;;10.85;65.98;95737.09;4971658;28;20318;-77
2024/03/10 09:54:42;;;;;;;3.20;1.60;;;;;;;10.96;65.30;95715.63;4971732;28;20208;-77
2024/03/10 09:57:08;;;;;;;1.87;1.57;;;;;;;11.16;66.08;95703.69;4971982;28;20690;-76
2024/03/10 09:59:42;;;;;;;2.43;1.50;;;;;;;11.23;62.48;95665.00;4971822;28;20221;-77
2024/03/10 10:02:17;;;;;;;1.60;1.40;;;;;;;11.24;63.08;95687.78;4970875;28;20692;-75
2024/03/10 10:04:53;;;;;;;2.17;1.40;;;;;;;11.24;64.62;95735.38;4971518;28;20587;-76
2024/03/10 10:07:23;;;;;;;2.03;1.63;;;;;;;11.28;64.72;95742.00;4971731;28;20300;-76
2024/03/10 10:09:56;;;;;;;1.97;1.70;;;;;;;11.40;61.27;95706.28;4971595;28;20222;-77
2024/03/10 10:12:22;;;;;;;2.00;1.50;;;;;;;11.40;62.26;95701.81;4971476;28;20255;-76
2024/03/10 10:14:50;;;;;;;1.70;1.23;;;;;;;11.47;61.95;95699.31;4971576;28;20211;-77
2024/03/10 10:17:17;;;;;;;2.63;1.50;;;;;;;11.57;61.43;95676.94;4971472;28;20282;-77
2024/03/10 10:19:45;;;;;;;1.80;1.37;;;;;;;11.60;60.98;95652.00;4971376;28;20245;-75
2024/03/10 10:22:12;;;;;;;2.47;1.73;;;;;;;11.64;60.95;95662.09;4971496;28;20258;-76
2024/03/10 10:24:38;;;;;;;1.83;1.67;;;;;;;11.58;59.73;95640.75;4971779;28;20221;-78
2024/03/10 10:27:05;;;;;;;2.43;1.60;;;;;;;11.46;59.76;95650.06;4972455;28;20209;-77
2024/03/10 10:29:48;;;;;;;2.73;1.67;;;;;;;11.59;60.95;95671.53;4974576;28;21033;-77
2024/03/10 10:32:14;;;;;;;2.50;1.77;;;;;;;11.59;61.28;95668.88;4974550;28;20238;-77
2024/03/10 10:34:41;;;;;;;1.80;1.63;;;;;;;11.64;60.47;95666.56;4975558;28;20214;-76
2024/03/10 10:37:12;;;;;;;1.53;1.43;;;;;;;11.65;61.49;95673.47;4975331;28;20289;-77
2024/03/10 10:39:39;;;;;;;2.70;1.90;;;;;;;11.69;63.68;95701.25;4974881;28;20646;-77
2024/03/10 10:42:07;;;;;;;1.67;1.47;;;;;;;11.76;65.79;95720.75;4975748;28;20231;-78
2024/03/10 10:44:34;;;;;;;2.57;1.50;;;;;;;11.85;61.61;95677.34;4976075;28;20594;-76
2024/03/10 10:47:01;;;;;;;1.70;1.30;;;;;;;11.84;61.29;95689.78;4975272;28;20213;-79
2024/03/10 10:49:30;;;;;;;2.90;1.70;;;;;;;11.84;60.34;95673.91;4974140;28;20218;-76
2024/03/10 10:51:56;;;;;;;4.40;1.60;;;;;;;11.84;60.89;95678.34;4974127;28;20449;-76
2024/03/10 10:54:25;;;;;;;2.87;1.53;;;;;;;11.93;59.26;95651.69;4974224;28;20213;-76
2024/03/10 10:56:54;;;;;;;1.97;1.47;;;;;;;11.92;60.02;95671.19;4974754;28;20605;-76
2024/03/10 10:59:22;;;;;;;1.77;1.57;;;;;;;11.87;59.93;95672.72;4974006;28;20692;-76
2024/03/10 11:01:51;;;;;;;3.17;1.70;;;;;;;12.01;60.41;95671.97;4973848;28;20238;-77
2024/03/10 11:04:24;;;;;;;4.33;1.50;;;;;;;12.09;60.51;95671.94;4973961;28;20946;-76
2024/03/10 11:06:55;;;;;;;1.93;1.63;;;;;;;12.19;59.91;95654.00;4974141;28;20222;-76
2024/03/10 11:09:30;;;;;;;1.43;1.33;;;;;;;12.25;60.24;95645.34;4974272;28;20210;-76
2024/03/10 11:11:57;;;;;;;1.60;1.30;;;;;;;12.23;59.23;95605.81;4974148;28;20277;-76
2024/03/10 11:14:26;;;;;;;2.27;1.70;;;;;;;12.24;58.48;95601.34;4973933;28;20210;-76
2024/03/10 11:17:15;;;;;;;2.07;1.33;;;;;;;12.20;58.91;95623.88;4974354;28;20576;-77
2024/03/10 11:19:45;;;;;;;2.20;1.60;;;;;;;12.22;57.29;95598.88;4974219;28;20210;-76
2024/03/10 11:22:11;;;;;;;2.10;1.60;;;;;;;12.21;57.70;95617.56;4976493;28;20670;-79
2024/03/10 11:24:40;;;;;;;1.77;1.50;;;;;;;12.11;57.22;95606.41;4974880;28;20225;-77
2024/03/10 11:27:17;;;;;;;1.70;1.60;;;;;;;12.05;58.92;95638.88;4973998;28;20683;-77
2024/03/10 11:29:44;;;;;;;2.27;1.20;;;;;;;11.94;59.36;95652.50;4973197;28;20211;-76
2024/03/10 11:32:33;;;;;;;2.33;1.70;;;;;;;11.88;61.04;95680.50;4973888;28;20232;-76
2024/03/10 11:35:07;;;;;;;1.60;1.27;;;;;;;11.97;60.51;95673.31;4972754;28;20238;-76
2024/03/10 11:37:35;;;;;;;1.50;1.40;;;;;;;11.99;60.24;95655.47;4974043;28;20206;-76
2024/03/10 11:40:05;;;;;;;2.43;1.57;;;;;;;11.97;61.43;95674.16;4972635;28;20210;-76
2024/03/10 11:42:32;;;;;;;2.37;1.57;;;;;;;12.06;62.34;95688.19;4973644;28;20258;-77
2024/03/10 11:44:59;;;;;;;1.60;1.10;;;;;;;12.14;60.97;95664.28;4973932;28;20495;-76
2024/03/10 11:47:26;;;;;;;2.43;1.53;;;;;;;12.16;58.53;95612.81;4974147;28;20207;-76
2024/03/10 11:49:54;;;;;;;1.93;1.43;;;;;;;12.10;58.13;95608.22;4973443;28;20215;-76
2024/03/10 11:52:21;;;;;;;2.60;1.43;;;;;;;12.16;58.84;95619.94;4973527;28;20616;-78
2024/03/10 11:54:56;;;;;;;2.77;1.60;;;;;;;12.07;59.15;95627.13;4974037;28;20226;-76
2024/03/10 11:57:25;;;;;;;1.70;1.30;;;;;;;11.97;58.80;95625.69;4974117;28;20564;-76
2024/03/10 11:59:52;;;;;;;1.53;1.43;;;;;;;11.99;59.49;95642.22;4973532;28;20210;-78
2024/03/10 12:02:21;;;;;;;1.93;1.60;;;;;;;12.10;59.14;95657.72;4973101;28;20318;-75